Time;durP1;ratioP1;P1;durP2;ratioP2;P2;SDS_P1;SDS_P2;PMS_P1;PMS_P2;Temp;Humidity;BMP_temperature;BMP_pressure;BME280_temperature;BME280_humidity;BME280_pressure;Samples;Min_cycle;Max_cycle;Signal;HPM_P1;HPM_P2
2023/11/20 00:19:10;;;;;;;13.70;9.20;;;;;;;5.24;100.00;97761.46;435237;1251;106678;-42
2023/11/20 00:29:14;;;;;;;18.70;10.20;;;;;;;5.32;100.00;97752.83;435126;1255;99155;-41
2023/11/20 00:49:20;;;;;;;10.60;8.40;;;;;;;5.27;100.00;97758.26;435279;1252;99107;-40
2023/11/20 00:59:23;;;;;;;20.70;9.00;;;;;;;5.33;100.00;97766.49;435205;1255;111858;-40
2023/11/20 01:09:26;;;;;;;16.40;8.60;;;;;;;5.39;100.00;97775.58;435126;1255;108300;-41
2023/11/20 01:19:30;;;;;;;13.70;8.00;;;;;;;5.44;100.00;97768.36;435168;1255;99221;-40
2023/11/20 01:59:46;;;;;;;17.00;8.20;;;;;;;5.54;100.00;97757.41;435251;1255;106643;-40
2023/11/20 02:09:49;;;;;;;10.90;6.40;;;;;;;5.65;100.00;97749.61;436009;1254;99239;-41
2023/11/20 02:29:55;;;;;;;10.90;5.60;;;;;;;5.83;100.00;97732.94;435249;1254;99335;-41
2023/11/20 02:39:59;;;;;;;15.40;6.80;;;;;;;5.91;100.00;97733.17;435303;1255;110492;-40
2023/11/20 03:00:11;;;;;;;16.10;7.10;;;;;;;6.02;100.00;97737.73;435198;1253;99191;-40
2023/11/20 03:20:20;;;;;;;13.10;6.60;;;;;;;6.02;100.00;97733.85;435255;1254;99374;-39
2023/11/20 03:30:23;;;;;;;17.70;6.60;;;;;;;6.05;100.00;97734.91;435176;1253;113047;-41
2023/11/20 03:40:26;;;;;;;15.80;8.70;;;;;;;6.07;100.00;97733.50;435289;1251;108296;-40
2023/11/20 03:50:30;;;;;;;17.00;8.20;;;;;;;6.03;100.00;97730.41;435251;1251;99214;-41
2023/11/20 04:00:33;;;;;;;24.60;8.20;;;;;;;6.05;100.00;97725.48;435195;1254;108034;-40
2023/11/20 04:20:40;;;;;;;15.80;6.60;;;;;;;6.14;100.00;97707.33;435220;1254;110720;-40
2023/11/20 04:30:44;;;;;;;9.60;6.20;;;;;;;6.20;100.00;97702.08;435189;1255;107454;-40
2023/11/20 04:40:48;;;;;;;14.30;5.40;;;;;;;6.25;100.00;97697.16;435210;1254;99211;-42
2023/11/20 04:50:52;;;;;;;9.90;5.50;;;;;;;6.33;100.00;97703.70;435302;1254;110617;-40
2023/11/20 05:00:55;;;;;;;9.50;6.40;;;;;;;6.38;100.00;97700.23;435193;1250;99365;-41
2023/11/20 05:10:58;;;;;;;10.80;5.90;;;;;;;6.42;100.00;97692.77;435180;1255;111721;-41
2023/11/20 05:21:01;;;;;;;12.10;6.20;;;;;;;6.46;100.00;97695.48;435115;1251;107495;-41
2023/11/20 05:41:07;;;;;;;9.50;5.80;;;;;;;6.52;100.00;97693.98;435110;1254;106647;-40
2023/11/20 05:51:16;;;;;;;8.60;4.60;;;;;;;6.56;100.00;97693.77;435148;1255;99228;-40
2023/11/20 06:01:19;;;;;;;7.70;5.50;;;;;;;6.54;100.00;97689.69;435416;1255;110567;-39
2023/11/20 06:11:24;;;;;;;11.20;5.90;;;;;;;6.48;100.00;97690.27;435340;1256;108012;-43
2023/11/20 06:31:31;;;;;;;9.60;6.90;;;;;;;6.60;100.00;97699.60;435351;1254;107382;-39
2023/11/20 06:41:34;;;;;;;9.00;6.50;;;;;;;6.70;100.00;97715.02;436341;1255;99848;-40
2023/11/20 06:51:37;;;;;;;10.10;6.90;;;;;;;6.75;100.00;97729.48;435600;1255;111029;-40
2023/11/20 07:01:43;;;;;;;14.30;7.60;;;;;;;6.79;100.00;97732.48;435266;1250;107783;-38
2023/11/20 07:11:46;;;;;;;9.70;7.90;;;;;;;6.82;100.00;97730.98;435170;1255;99260;-39
2023/11/20 07:21:49;;;;;;;14.60;11.50;;;;;;;6.86;100.00;97734.72;435012;1250;108190;-40
2023/11/20 07:31:52;;;;;;;13.10;9.50;;;;;;;6.94;100.00;97731.56;435261;1250;99243;-39
2023/11/20 07:41:56;;;;;;;11.90;7.20;;;;;;;7.02;100.00;97729.84;435234;1254;110862;-40
2023/11/20 07:52:00;;;;;;;12.20;8.50;;;;;;;7.03;100.00;97731.27;435159;1254;107701;-39
2023/11/20 08:02:03;;;;;;;12.40;8.00;;;;;;;7.05;100.00;97731.48;435378;1254;98007;-40
2023/11/20 08:12:07;;;;;;;12.70;7.50;;;;;;;7.16;100.00;97729.31;435186;1254;108663;-39
2023/11/20 08:22:10;;;;;;;13.40;6.70;;;;;;;7.24;100.00;97725.19;435489;1252;99253;-39
2023/11/20 08:42:18;;;;;;;15.40;8.00;;;;;;;7.40;100.00;97720.05;435051;1264;110807;-40
2023/11/20 08:52:21;;;;;;;10.00;7.50;;;;;;;7.54;100.00;97722.14;435247;1256;99103;-39
2023/11/20 09:02:25;;;;;;;13.50;9.00;;;;;;;7.68;100.00;97726.47;435252;1255;109552;-40
2023/11/20 09:12:28;;;;;;;15.40;8.60;;;;;;;7.68;100.00;97723.41;435222;1255;99261;-38
2023/11/20 09:22:31;;;;;;;14.80;8.70;;;;;;;7.61;100.00;97722.65;435392;1254;112084;-39
2023/11/20 09:32:34;;;;;;;14.00;7.90;;;;;;;7.62;100.00;97714.05;435263;1254;109322;-41
2023/11/20 09:52:44;;;;;;;14.60;8.60;;;;;;;7.78;100.00;97703.70;434994;1255;109182;-39
2023/11/20 10:02:47;;;;;;;10.80;6.90;;;;;;;7.75;100.00;97693.90;435240;1253;99366;-41
2023/11/20 10:32:58;;;;;;;14.10;9.20;;;;;;;7.69;100.00;97672.80;435174;1264;101518;-40
2023/11/20 10:43:02;;;;;;;18.20;11.30;;;;;;;7.75;100.00;97663.34;435264;1256;109026;-40
2023/11/20 10:53:07;;;;;;;13.80;11.10;;;;;;;7.74;100.00;97653.23;435353;1255;99244;-39
2023/11/20 11:13:27;;;;;;;13.70;9.80;;;;;;;7.69;100.00;97634.45;435240;1251;107413;-40
2023/11/20 11:23:35;;;;;;;11.60;9.20;;;;;;;7.80;100.00;97628.41;435189;1254;97983;-41
2023/11/20 11:33:54;;;;;;;14.00;9.10;;;;;;;7.85;100.00;97615.96;435316;1250;108423;-40
2023/11/20 12:04:57;;;;;;;7.80;6.00;;;;;;;8.47;100.00;97591.38;435163;1253;107543;-40
2023/11/20 12:15:01;;;;;;;9.20;5.60;;;;;;;8.58;100.00;97594.52;435162;1256;99240;-39
2023/11/20 12:25:04;;;;;;;14.40;8.80;;;;;;;8.52;100.00;97591.83;435446;1255;108859;-39
2023/11/20 12:45:12;;;;;;;14.70;10.40;;;;;;;8.38;100.00;97582.34;435055;1255;376551;-40
2023/11/20 13:25:30;;;;;;;13.10;8.10;;;;;;;8.26;100.00;97569.65;435365;1256;97961;-39
2023/11/20 13:35:34;;;;;;;17.60;10.30;;;;;;;8.28;100.00;97571.37;435216;1255;111527;-38
2023/11/20 13:45:37;;;;;;;22.80;11.50;;;;;;;8.34;100.00;97568.91;435165;1257;107022;-39
2023/11/20 14:05:46;;;;;;;13.60;9.50;;;;;;;8.28;100.00;97561.52;435254;1255;107688;-41
2023/11/20 14:15:49;;;;;;;15.00;8.70;;;;;;;8.24;100.00;97566.14;435180;1263;99231;-41
2023/11/20 14:25:53;;;;;;;36.30;22.70;;;;;;;8.15;100.00;97577.07;435290;1263;112497;-38
2023/11/20 14:35:59;;;;;;;21.30;14.50;;;;;;;8.04;100.00;97573.20;435232;1257;107194;-38
2023/11/20 14:46:03;;;;;;;26.40;15.70;;;;;;;7.91;100.00;97576.46;435269;1265;98835;-40
2023/11/20 14:56:08;;;;;;;25.30;14.90;;;;;;;7.84;100.00;97578.94;435291;1256;108880;-40
2023/11/20 15:06:12;;;;;;;26.30;17.90;;;;;;;7.80;100.00;97571.38;435278;1255;99241;-42
2023/11/20 15:16:19;;;;;;;24.70;17.00;;;;;;;7.79;100.00;97573.15;435254;1255;112983;-40
2023/11/20 15:26:22;;;;;;;32.30;24.40;;;;;;;7.79;100.00;97566.77;435123;1251;108311;-40
2023/11/20 15:36:26;;;;;;;32.70;22.60;;;;;;;7.74;100.00;97557.74;435279;1256;98802;-40
2023/11/20 15:46:29;;;;;;;40.40;27.10;;;;;;;7.67;100.00;97560.65;435375;1263;108726;-40
2023/11/20 15:56:33;;;;;;;44.00;30.50;;;;;;;7.64;100.00;97558.22;435160;1251;99221;-40
2023/11/20 16:06:37;;;;;;;46.50;29.90;;;;;;;7.63;100.00;97564.67;435210;1257;110940;-40
2023/11/20 16:16:42;;;;;;;39.40;26.70;;;;;;;7.65;100.00;97564.61;435145;1255;107801;-43
2023/11/20 16:36:50;;;;;;;32.20;20.20;;;;;;;7.78;100.00;97562.83;435260;1254;107543;-40
2023/11/20 16:46:53;;;;;;;28.20;21.30;;;;;;;7.85;100.00;97562.21;435286;1251;99274;-39
2023/11/20 17:07:01;;;;;;;32.30;21.00;;;;;;;7.88;100.00;97571.11;435353;1254;107530;-41
2023/11/20 17:17:05;;;;;;;51.80;30.50;;;;;;;7.83;100.00;97566.81;435307;1251;99320;-40
2023/11/20 17:27:09;;;;;;;35.00;21.60;;;;;;;7.85;100.00;97562.06;435359;1256;108670;-38
2023/11/20 17:37:13;;;;;;;21.60;12.60;;;;;;;7.92;100.00;97566.11;435125;1262;99224;-40
2023/11/20 17:47:16;;;;;;;13.90;10.10;;;;;;;8.02;100.00;97569.89;435277;1270;111277;-40
2023/11/20 18:07:22;;;;;;;16.60;10.60;;;;;;;8.19;100.00;97572.33;435236;1255;99253;-40
2023/11/20 18:17:25;;;;;;;16.30;10.10;;;;;;;8.25;100.00;97571.73;435213;1254;108268;-39
2023/11/20 18:27:30;;;;;;;22.00;14.00;;;;;;;8.35;100.00;97574.23;435182;1251;99230;-41
2023/11/20 18:37:33;;;;;;;12.30;9.10;;;;;;;8.35;100.00;97569.19;435178;1254;110949;-40
2023/11/20 18:47:36;;;;;;;13.80;10.80;;;;;;;8.36;100.00;97572.38;435184;1251;107590;-41
2023/11/20 19:07:43;;;;;;;12.70;8.30;;;;;;;8.44;100.00;97578.80;435300;1251;109352;-40
2023/11/20 19:17:48;;;;;;;11.30;6.50;;;;;;;8.44;100.00;97575.64;435304;1254;99246;-41
2023/11/20 19:27:52;;;;;;;7.90;4.80;;;;;;;8.47;100.00;97576.94;435259;1251;112123;-39
2023/11/20 19:37:55;;;;;;;26.20;15.00;;;;;;;8.47;100.00;97581.69;435222;1254;106876;-40
2023/11/20 20:08:04;;;;;;;6.20;4.10;;;;;;;8.45;100.00;97591.40;435234;1254;99227;-40
2023/11/20 20:18:08;;;;;;;15.40;7.70;;;;;;;8.43;100.00;97592.85;435270;1251;111618;-40
2023/11/20 20:28:13;;;;;;;18.30;11.00;;;;;;;8.43;100.00;97597.81;435392;1256;108557;-40
2023/11/20 20:48:20;;;;;;;21.00;11.40;;;;;;;8.38;100.00;97613.42;435245;1250;109099;-40
2023/11/20 20:58:24;;;;;;;6.50;3.90;;;;;;;8.32;100.00;97610.59;435274;1251;99262;-40
2023/11/20 21:08:27;;;;;;;8.20;5.10;;;;;;;8.25;100.00;97614.98;435135;1254;111469;-41
2023/11/20 21:18:30;;;;;;;13.30;8.00;;;;;;;8.23;100.00;97619.48;435269;1250;108613;-40
2023/11/20 21:28:34;;;;;;;5.10;3.10;;;;;;;8.21;100.00;97621.04;435304;1254;99154;-40
2023/11/20 21:38:38;;;;;;;6.90;5.00;;;;;;;8.15;100.00;97618.46;435184;1250;107325;-40
2023/11/20 21:48:41;;;;;;;5.50;4.10;;;;;;;8.12;100.00;97627.52;435200;1255;99247;-40
2023/11/20 22:08:47;;;;;;;12.80;7.20;;;;;;;8.05;100.00;97634.45;435294;1250;108058;-40
2023/11/20 22:18:51;;;;;;;2.60;1.70;;;;;;;8.03;100.00;97630.77;435275;1253;99241;-41
2023/11/20 22:28:56;;;;;;;2.80;1.70;;;;;;;7.98;100.00;97636.55;435271;1251;108671;-41
2023/11/20 22:38:59;;;;;;;1.30;1.10;;;;;;;7.94;100.00;97637.95;435290;1255;99035;-39
2023/11/20 22:59:07;;;;;;;1.10;0.70;;;;;;;7.93;100.00;97639.15;435283;1256;107409;-40
2023/11/20 23:09:11;;;;;;;1.30;1.00;;;;;;;7.89;100.00;97637.61;435359;1251;99208;-41
2023/11/20 23:19:14;;;;;;;1.30;1.20;;;;;;;7.87;100.00;97640.52;435101;1250;108688;-39
2023/11/20 23:29:16;;;;;;;1.70;1.60;;;;;;;7.81;100.00;97640.94;435218;1254;97974;-39
2023/11/20 23:39:20;;;;;;;4.10;3.00;;;;;;;7.83;100.00;97645.55;435246;1264;111815;-40
2023/11/20 23:49:24;;;;;;;3.80;2.00;;;;;;;7.85;100.00;97644.86;435288;1250;108217;-41
